Time;durP1;ratioP1;P1;durP2;ratioP2;P2;SDS_P1;SDS_P2;PMS_P1;PMS_P2;Temp;Humidity;BMP_temperature;BMP_pressure;BME280_temperature;BME280_humidity;BME280_pressure;Samples;Min_cycle;Max_cycle;Signal;HPM_P1;HPM_P2
2023/01/12 00:01:32;;;;;;;5.90;2.10;;;;;;;3.98;100.00;98547.56;5033559;28;20234;-80
2023/01/12 00:03:58;;;;;;;4.50;1.97;;;;;;;3.97;100.00;98535.41;5033849;28;20235;-80
2023/01/12 00:06:25;;;;;;;5.67;1.80;;;;;;;3.97;100.00;98539.81;5033951;28;20214;-79
2023/01/12 00:08:53;;;;;;;5.17;2.07;;;;;;;3.95;100.00;98537.25;5033096;28;20206;-80
2023/01/12 00:11:20;;;;;;;7.50;2.00;;;;;;;3.99;100.00;98536.22;5033265;28;20225;-79
2023/01/12 00:13:47;;;;;;;5.37;1.70;;;;;;;3.97;100.00;98539.81;5033469;28;20668;-80
2023/01/12 00:16:36;;;;;;;5.20;1.90;;;;;;;4.02;100.00;98533.50;5033619;28;20226;-80
2023/01/12 00:19:07;;;;;;;7.40;2.07;;;;;;;3.98;100.00;98526.66;5032598;28;20209;-80
2023/01/12 00:21:42;;;;;;;5.47;1.77;;;;;;;4.00;100.00;98530.09;5033008;28;20234;-79
2023/01/12 00:24:10;;;;;;;5.57;2.40;;;;;;;4.00;100.00;98519.63;5033027;28;20712;-80
2023/01/12 00:26:36;;;;;;;7.87;2.20;;;;;;;4.09;100.00;98527.13;5033027;28;20243;-80
2023/01/12 00:29:03;;;;;;;5.67;2.27;;;;;;;4.17;100.00;98530.28;5032424;28;20708;-80
2023/01/12 00:31:29;;;;;;;8.37;2.07;;;;;;;4.25;100.00;98525.63;5033449;28;20614;-79
2023/01/12 00:33:56;;;;;;;4.47;1.67;;;;;;;4.44;100.00;98525.78;5033025;28;20233;-80
2023/01/12 00:36:22;;;;;;;4.70;1.57;;;;;;;4.49;100.00;98529.94;5032788;28;20218;-80
2023/01/12 00:38:49;;;;;;;6.63;1.80;;;;;;;4.59;100.00;98519.97;5031160;28;20224;-80
2023/01/12 00:45:20;;;;;;;4.90;1.87;;;;;;;4.68;100.00;98516.97;5032384;28;20242;-80
2023/01/12 00:46:47;;;;;;;9.37;1.90;;;;;;;4.71;100.00;98499.34;5032636;28;20278;-80
2023/01/12 00:49:14;;;;;;;5.47;1.70;;;;;;;4.70;100.00;98507.31;5032181;28;20211;-80
2023/01/12 00:51:41;;;;;;;5.83;1.80;;;;;;;4.66;100.00;98498.72;5032578;28;20242;-80
2023/01/12 00:54:08;;;;;;;5.90;1.37;;;;;;;4.72;100.00;98501.09;5032355;28;20685;-80
2023/01/12 00:56:36;;;;;;;5.47;1.50;;;;;;;4.75;100.00;98500.94;5032398;28;20213;-80
2023/01/12 00:59:03;;;;;;;7.37;1.60;;;;;;;4.89;100.00;98503.84;5031695;28;20247;-80
2023/01/12 01:01:30;;;;;;;4.50;1.60;;;;;;;4.94;100.00;98501.06;5032087;28;20775;-80
2023/01/12 01:03:57;;;;;;;3.17;1.13;;;;;;;4.93;100.00;98494.97;5032357;28;20234;-80
2023/01/12 01:06:23;;;;;;;2.70;1.57;;;;;;;4.87;100.00;98494.34;5032345;28;20211;-80
2023/01/12 01:08:50;;;;;;;6.20;1.67;;;;;;;4.93;100.00;98497.59;5031593;28;20218;-80
2023/01/12 01:11:16;;;;;;;4.83;1.43;;;;;;;4.87;100.00;98497.84;5032240;28;20235;-80
2023/01/12 01:13:45;;;;;;;4.97;1.33;;;;;;;4.85;100.00;98507.53;5032432;28;20211;-80
2023/01/12 01:16:13;;;;;;;4.07;1.40;;;;;;;4.89;100.00;98498.63;5032243;28;20273;-80
2023/01/12 01:18:41;;;;;;;6.70;1.70;;;;;;;4.92;100.00;98501.13;5031912;28;20212;-80
2023/01/12 01:21:08;;;;;;;2.47;1.57;;;;;;;4.88;100.00;98496.09;5031082;28;20223;-80
2023/01/12 01:23:36;;;;;;;6.43;1.40;;;;;;;4.92;100.00;98501.13;5031868;28;20236;-80
2023/01/12 01:26:03;;;;;;;5.63;1.63;;;;;;;5.01;100.00;98500.72;5031777;28;20211;-80
2023/01/12 01:28:31;;;;;;;5.90;1.50;;;;;;;5.04;100.00;98513.72;5031694;28;20210;-80
2023/01/12 01:31:04;;;;;;;4.37;1.63;;;;;;;5.17;100.00;98504.44;5030966;28;20280;-80
2023/01/12 01:33:31;;;;;;;3.83;1.60;;;;;;;5.27;100.00;98508.38;5031905;28;20583;-80
2023/01/12 01:35:57;;;;;;;3.97;1.37;;;;;;;5.40;100.00;98511.31;5031821;28;20270;-80
2023/01/12 01:38:24;;;;;;;6.70;1.70;;;;;;;5.51;100.00;98499.44;5031507;28;20709;-80
2023/01/12 01:40:50;;;;;;;5.10;1.60;;;;;;;5.56;100.00;98497.47;5030935;28;20219;-80
2023/01/12 01:43:19;;;;;;;5.47;1.30;;;;;;;5.62;100.00;98506.88;5031855;28;20228;-80
2023/01/12 01:45:55;;;;;;;6.43;1.97;;;;;;;5.73;100.00;98502.00;5031801;28;20220;-80
2023/01/12 01:48:24;;;;;;;4.17;1.43;;;;;;;5.82;100.00;98502.47;5031813;28;20221;-80
2023/01/12 01:50:56;;;;;;;6.20;1.70;;;;;;;5.84;100.00;98511.13;5030674;28;20204;-80
2023/01/12 01:53:25;;;;;;;6.20;1.40;;;;;;;5.85;100.00;98515.44;5031745;28;20255;-80
2023/01/12 01:55:54;;;;;;;5.23;1.50;;;;;;;5.95;100.00;98503.63;5031934;28;20220;-80
2023/01/12 01:58:24;;;;;;;2.37;1.10;;;;;;;5.98;100.00;98508.72;5031692;28;20207;-80
2023/01/12 02:00:51;;;;;;;5.53;1.47;;;;;;;6.05;100.00;98507.53;5030678;28;20212;-80
2023/01/12 02:03:18;;;;;;;6.77;1.30;;;;;;;6.16;100.00;98501.81;5031525;28;20231;-80
2023/01/12 02:05:48;;;;;;;9.03;2.73;;;;;;;6.25;100.00;98494.38;5031509;28;20232;-80
2023/01/12 02:08:23;;;;;;;2.33;1.10;;;;;;;6.24;100.00;98492.63;5031356;28;20218;-80
2023/01/12 02:10:52;;;;;;;3.87;1.60;;;;;;;6.30;100.00;98492.34;5030821;28;20329;-80
2023/01/12 02:16:21;;;;;;;4.03;1.43;;;;;;;6.43;100.00;98477.75;5031422;28;20296;-80
2023/01/12 02:19:06;;;;;;;4.30;1.50;;;;;;;6.41;100.00;98468.25;5030680;28;20251;-80
2023/01/12 02:22:11;;;;;;;5.63;2.00;;;;;;;6.40;100.00;98459.50;5031242;28;20236;-80
2023/01/12 02:25:31;;;;;;;7.90;1.70;;;;;;;6.38;100.00;98458.75;4984511;28;20235;-80
2023/01/12 02:28:28;;;;;;;7.87;1.60;;;;;;;6.40;100.00;98448.19;4970049;28;20213;-80
2023/01/12 02:31:33;;;;;;;4.20;1.47;;;;;;;6.48;100.00;98448.66;5027881;28;20307;-80
2023/01/12 02:34:12;;;;;;;3.20;1.30;;;;;;;6.52;100.00;98439.69;5031212;28;20204;-80
2023/01/12 02:36:49;;;;;;;6.93;1.50;;;;;;;6.59;100.00;98435.88;5031209;28;20220;-80
2023/01/12 02:39:20;;;;;;;6.00;1.77;;;;;;;6.61;100.00;98427.00;5030202;28;20208;-80
2023/01/12 02:44:48;;;;;;;5.07;1.20;;;;;;;6.70;100.00;98417.78;5030874;28;20231;-80
2023/01/12 02:47:20;;;;;;;4.13;1.10;;;;;;;6.72;100.00;98415.94;5030893;28;20212;-80
2023/01/12 02:49:52;;;;;;;3.70;1.53;;;;;;;6.71;100.00;98403.75;5030073;28;20207;-81
2023/01/12 02:52:25;;;;;;;5.83;1.40;;;;;;;6.69;100.00;98406.44;5030708;28;20749;-80
2023/01/12 02:54:54;;;;;;;6.13;1.80;;;;;;;6.70;100.00;98402.88;5030954;28;20212;-80
2023/01/12 02:57:23;;;;;;;7.47;2.20;;;;;;;6.65;100.00;98391.75;5030882;28;20212;-80
2023/01/12 02:59:51;;;;;;;4.30;1.33;;;;;;;6.58;100.00;98395.63;5029951;28;20213;-80
2023/01/12 03:02:19;;;;;;;3.77;1.20;;;;;;;6.50;100.00;98396.91;5033653;28;20224;-81
2023/01/12 03:04:47;;;;;;;2.40;1.47;;;;;;;6.43;100.00;98390.25;5034590;28;20243;-78
2023/01/12 03:07:48;;;;;;;5.00;1.20;;;;;;;6.45;100.00;98396.28;5034568;28;20694;-80
2023/01/12 03:10:35;;;;;;;7.37;1.67;;;;;;;6.44;100.00;98379.69;4953429;29;20207;-82
2023/01/12 03:13:06;;;;;;;5.50;1.57;;;;;;;6.38;100.00;98394.88;4953939;29;20235;-80
2023/01/12 03:15:35;;;;;;;3.70;1.50;;;;;;;6.32;100.00;98406.53;5003090;28;20205;-81
2023/01/12 03:18:06;;;;;;;4.43;1.33;;;;;;;6.28;100.00;98415.47;5034410;28;20220;-80
2023/01/12 03:20:38;;;;;;;2.53;1.10;;;;;;;6.39;100.00;98407.94;5033665;28;20216;-80
2023/01/12 03:23:12;;;;;;;9.43;1.60;;;;;;;6.48;100.00;98412.72;5033893;28;20237;-85
2023/01/12 03:25:42;;;;;;;7.13;1.60;;;;;;;6.57;100.00;98400.94;5034310;28;20298;-82
2023/01/12 03:28:13;;;;;;;4.13;1.27;;;;;;;6.64;100.00;98403.19;5034178;28;20224;-79
2023/01/12 03:30:43;;;;;;;7.07;1.57;;;;;;;6.67;100.00;98389.06;5033519;28;20224;-81
2023/01/12 03:33:11;;;;;;;4.67;1.40;;;;;;;6.77;100.00;98393.78;5034228;28;20228;-83
2023/01/12 03:35:49;;;;;;;5.70;1.67;;;;;;;6.75;100.00;98394.78;5034175;28;20220;-85
2023/01/12 03:38:23;;;;;;;4.70;1.37;;;;;;;6.74;100.00;98390.44;5034299;28;20213;-83
2023/01/12 03:41:00;;;;;;;8.17;1.93;;;;;;;6.74;100.00;98395.72;5033324;28;20555;-82
2023/01/12 03:43:31;;;;;;;4.83;1.67;;;;;;;6.75;100.00;98394.78;5034061;28;20325;-83
2023/01/12 03:46:02;;;;;;;3.50;1.40;;;;;;;6.71;100.00;98382.75;5033901;28;20565;-83
2023/01/12 03:48:33;;;;;;;3.43;1.40;;;;;;;6.74;100.00;98393.94;5033992;28;20692;-83
2023/01/12 03:51:07;;;;;;;5.97;1.87;;;;;;;6.76;100.00;98386.81;5032995;28;20224;-83
2023/01/12 03:53:35;;;;;;;6.00;1.67;;;;;;;6.74;100.00;98383.44;5033810;28;20252;-79
2023/01/12 03:56:05;;;;;;;4.27;1.40;;;;;;;6.73;100.00;98386.13;5033657;28;20318;-82
2023/01/12 03:58:33;;;;;;;5.53;1.53;;;;;;;6.67;100.00;98381.19;5033490;28;20212;-79
2023/01/12 04:01:00;;;;;;;5.40;1.33;;;;;;;6.69;100.00;98389.81;5033026;28;20286;-79
2023/01/12 04:03:27;;;;;;;4.87;1.13;;;;;;;6.76;100.00;98391.22;5033608;28;20232;-80
2023/01/12 04:05:53;;;;;;;5.60;1.53;;;;;;;6.80;100.00;98383.13;5033380;28;20219;-80
2023/01/12 04:08:22;;;;;;;4.67;1.43;;;;;;;6.84;100.00;98373.31;5033558;28;20239;-80
2023/01/12 04:10:48;;;;;;;4.83;1.53;;;;;;;6.88;100.00;98370.44;5032600;28;20240;-80
2023/01/12 04:13:13;;;;;;;6.03;1.90;;;;;;;6.91;100.00;98380.78;5033290;28;20236;-80
2023/01/12 04:15:42;;;;;;;5.27;1.77;;;;;;;6.94;100.00;98364.88;5033401;28;20682;-80
2023/01/12 04:18:08;;;;;;;6.70;1.43;;;;;;;6.94;100.00;98359.63;5033239;28;20212;-80
2023/01/12 04:20:35;;;;;;;6.67;1.70;;;;;;;6.98;100.00;98361.19;5032307;28;20361;-80
2023/01/12 04:23:00;;;;;;;4.77;1.50;;;;;;;6.99;100.00;98356.75;5075579;22;20238;-76
2023/01/12 04:25:28;;;;;;;4.00;1.30;;;;;;;6.98;100.00;98350.66;5073023;28;20584;-76
2023/01/12 04:27:59;;;;;;;5.40;1.70;;;;;;;7.05;100.00;98351.19;5072935;28;20219;-76
2023/01/12 04:30:26;;;;;;;8.00;1.40;;;;;;;6.93;100.00;98355.31;5072229;28;20243;-75
2023/01/12 04:32:54;;;;;;;5.63;1.60;;;;;;;6.92;100.00;98343.09;5072809;28;20228;-76
2023/01/12 04:35:20;;;;;;;6.57;1.77;;;;;;;6.87;100.00;98349.50;5072839;28;20227;-77
2023/01/12 04:37:47;;;;;;;5.27;1.50;;;;;;;6.83;100.00;98343.56;5072848;28;20215;-77
2023/01/12 04:40:15;;;;;;;4.57;1.50;;;;;;;6.83;100.00;98346.19;5071871;28;20217;-77
2023/01/12 04:43:03;;;;;;;8.20;1.67;;;;;;;6.77;100.00;98346.50;5072763;28;20572;-77
2023/01/12 04:45:32;;;;;;;7.20;1.50;;;;;;;6.79;100.00;98344.63;5072648;28;20238;-77
2023/01/12 04:48:02;;;;;;;7.53;1.53;;;;;;;6.75;100.00;98337.00;5072665;28;20211;-77
2023/01/12 04:50:28;;;;;;;4.07;1.47;;;;;;;6.70;100.00;98326.72;5071697;28;20277;-78
2023/01/12 04:52:55;;;;;;;5.43;1.80;;;;;;;6.65;100.00;98320.84;5072504;28;20223;-77
2023/01/12 04:55:21;;;;;;;4.47;1.40;;;;;;;6.62;100.00;98330.66;5072884;28;20532;-77
2023/01/12 04:57:49;;;;;;;2.93;1.23;;;;;;;6.67;100.00;98323.41;5072642;28;20215;-78
2023/01/12 05:00:16;;;;;;;6.13;1.50;;;;;;;6.73;100.00;98323.94;5071649;28;20211;-77
2023/01/12 05:02:43;;;;;;;8.40;2.10;;;;;;;6.70;100.00;98326.72;5072257;28;20234;-77
2023/01/12 05:05:09;;;;;;;9.40;2.50;;;;;;;6.73;100.00;98333.59;5072249;28;20333;-78
2023/01/12 05:07:36;;;;;;;8.30;1.93;;;;;;;6.74;100.00;98333.53;5072103;28;20666;-77
2023/01/12 05:12:46;;;;;;;5.97;1.40;;;;;;;6.79;100.00;98328.88;5072111;28;20443;-77
2023/01/12 05:15:14;;;;;;;9.20;1.70;;;;;;;6.76;100.00;98334.28;5072060;28;20211;-77
2023/01/12 05:17:41;;;;;;;5.33;1.70;;;;;;;6.70;100.00;98339.00;5071921;28;20215;-77
2023/01/12 05:20:09;;;;;;;4.97;1.50;;;;;;;6.69;100.00;98343.41;5070960;28;20215;-77
2023/01/12 05:22:35;;;;;;;8.20;1.50;;;;;;;6.80;100.00;98334.97;5071590;28;20747;-77
2023/01/12 05:25:02;;;;;;;8.63;2.07;;;;;;;6.79;100.00;98331.50;5071403;28;20607;-77
2023/01/12 05:27:28;;;;;;;5.87;1.67;;;;;;;6.80;100.00;98327.97;5071772;28;20211;-78
2023/01/12 05:29:56;;;;;;;7.50;1.70;;;;;;;6.85;100.00;98328.56;5070958;28;20204;-77
2023/01/12 05:32:23;;;;;;;3.60;1.63;;;;;;;6.83;100.00;98330.41;5071463;28;20725;-77
2023/01/12 05:34:50;;;;;;;4.70;1.70;;;;;;;6.87;100.00;98321.47;5071726;28;20199;-77
2023/01/12 05:37:16;;;;;;;4.87;1.77;;;;;;;6.91;100.00;98312.47;5071825;28;20205;-77
2023/01/12 05:39:43;;;;;;;4.80;1.80;;;;;;;6.98;100.00;98307.75;5070838;28;20207;-77
2023/01/12 05:44:53;;;;;;;3.50;1.27;;;;;;;7.11;100.00;98288.66;5071581;28;20222;-77
2023/01/12 05:47:20;;;;;;;4.13;1.60;;;;;;;7.22;99.74;98285.44;5071513;28;20219;-77
2023/01/12 05:49:47;;;;;;;4.33;1.27;;;;;;;7.26;99.17;98277.31;5070759;28;20209;-77
2023/01/12 05:52:14;;;;;;;4.63;1.77;;;;;;;7.23;99.54;98288.84;5071455;28;20228;-77
2023/01/12 05:54:40;;;;;;;4.40;1.30;;;;;;;7.27;99.61;98292.16;5071397;28;20203;-77
2023/01/12 05:57:07;;;;;;;7.50;2.00;;;;;;;7.26;99.80;98297.50;5071343;28;20211;-77
2023/01/12 05:59:33;;;;;;;9.33;1.50;;;;;;;7.21;99.37;98295.09;5071008;28;20214;-77
2023/01/12 06:02:00;;;;;;;7.80;1.77;;;;;;;7.20;99.62;98288.16;5071211;28;20227;-77
2023/01/12 06:04:26;;;;;;;4.07;1.57;;;;;;;7.22;98.55;98286.31;5071585;28;20590;-77
2023/01/12 06:06:54;;;;;;;3.10;1.50;;;;;;;7.20;99.48;98282.91;5071387;28;20517;-77
2023/01/12 06:09:20;;;;;;;7.27;1.70;;;;;;;7.10;99.96;98284.34;5070425;28;20212;-77
2023/01/12 06:14:31;;;;;;;3.80;1.50;;;;;;;6.93;100.00;98294.88;5071398;28;20231;-77
2023/01/12 06:16:57;;;;;;;8.33;1.77;;;;;;;6.83;100.00;98292.81;5071304;28;20211;-77
2023/01/12 06:19:24;;;;;;;7.10;2.17;;;;;;;6.86;100.00;98283.00;5070575;28;20203;-77
2023/01/12 06:21:51;;;;;;;5.67;1.40;;;;;;;6.81;100.00;98287.63;5071127;28;20669;-77
2023/01/12 06:24:19;;;;;;;8.23;1.63;;;;;;;6.81;100.00;98289.41;5070973;28;20253;-77
2023/01/12 06:26:45;;;;;;;5.30;1.60;;;;;;;6.84;100.00;98269.06;5071085;28;20219;-77
2023/01/12 06:29:12;;;;;;;5.33;1.50;;;;;;;7.03;100.00;98264.53;5070539;28;20621;-77
2023/01/12 06:31:39;;;;;;;4.63;1.40;;;;;;;7.07;100.00;98259.97;5071153;28;20318;-77
2023/01/12 06:34:07;;;;;;;8.53;1.40;;;;;;;7.10;100.00;98260.69;5070930;28;20211;-77
2023/01/12 06:36:34;;;;;;;7.00;1.60;;;;;;;7.13;100.00;98265.75;5074426;28;20759;-77
2023/01/12 06:39:01;;;;;;;4.73;1.90;;;;;;;7.16;100.00;98260.34;5074447;28;20258;-77
2023/01/12 06:44:12;;;;;;;5.57;1.80;;;;;;;7.21;100.00;98257.47;5074922;28;20256;-77
2023/01/12 06:46:39;;;;;;;4.60;1.30;;;;;;;7.23;100.00;98253.84;5074875;28;20599;-77
2023/01/12 06:49:05;;;;;;;5.70;1.30;;;;;;;7.27;99.52;98257.13;5074520;28;20207;-77
2023/01/12 06:51:32;;;;;;;6.97;2.00;;;;;;;7.19;100.00;98260.19;5074392;28;20743;-77
2023/01/12 06:53:58;;;;;;;4.50;1.40;;;;;;;7.20;100.00;98266.28;5075025;28;20202;-77
2023/01/12 06:56:25;;;;;;;6.03;2.03;;;;;;;7.21;100.00;98274.06;5074722;28;20611;-77
2023/01/12 06:58:53;;;;;;;4.23;1.63;;;;;;;7.17;100.00;98272.56;5074174;28;20215;-77
2023/01/12 07:01:19;;;;;;;5.97;1.50;;;;;;;7.23;100.00;98266.97;5074415;28;20208;-77
2023/01/12 07:03:46;;;;;;;4.97;1.60;;;;;;;7.19;100.00;98270.69;5074553;28;20215;-77
2023/01/12 07:06:13;;;;;;;4.27;1.30;;;;;;;7.28;100.00;98259.69;5074604;28;20229;-77
2023/01/12 07:08:40;;;;;;;5.57;1.30;;;;;;;7.25;100.00;98270.38;5074516;28;20309;-77
2023/01/12 07:11:07;;;;;;;5.60;1.23;;;;;;;7.34;100.00;98265.44;5074069;28;20291;-77
2023/01/12 07:13:34;;;;;;;3.60;1.43;;;;;;;7.41;99.54;98256.28;5074314;28;20224;-77
2023/01/12 07:16:02;;;;;;;6.43;1.63;;;;;;;7.49;97.79;98238.34;5074285;28;20199;-76
2023/01/12 07:18:29;;;;;;;4.47;1.20;;;;;;;7.57;97.16;98236.13;5074261;28;20681;-77
2023/01/12 07:20:56;;;;;;;5.37;1.30;;;;;;;7.59;96.30;98239.50;5073757;28;20208;-76
2023/01/12 07:23:23;;;;;;;4.70;1.70;;;;;;;7.62;96.50;98246.38;5073985;28;20249;-77
2023/01/12 07:25:50;;;;;;;4.77;1.50;;;;;;;7.56;96.79;98254.59;5074203;28;20232;-77
2023/01/12 07:28:16;;;;;;;6.00;1.60;;;;;;;7.57;96.85;98251.03;5074121;28;20212;-77
2023/01/12 07:30:42;;;;;;;3.57;1.33;;;;;;;7.60;96.97;98256.16;5073193;28;20625;-77
2023/01/12 07:33:12;;;;;;;4.43;1.43;;;;;;;7.63;96.11;98255.97;5073862;28;20262;-77
2023/01/12 07:35:39;;;;;;;5.23;1.53;;;;;;;7.69;96.92;98259.13;5073869;28;20214;-77
2023/01/12 07:38:05;;;;;;;3.27;1.43;;;;;;;7.69;95.66;98247.72;5074046;28;20216;-77
2023/01/12 07:40:32;;;;;;;5.03;1.40;;;;;;;7.67;96.07;98247.84;5073197;28;20207;-78
2023/01/12 07:42:59;;;;;;;6.53;1.33;;;;;;;7.70;96.44;98242.38;5073967;28;20220;-77
2023/01/12 07:45:26;;;;;;;7.37;1.77;;;;;;;7.78;95.27;98249.88;5073716;28;20231;-77
2023/01/12 07:47:53;;;;;;;4.93;1.27;;;;;;;7.83;95.59;98247.81;5073190;28;20208;-76
2023/01/12 07:50:21;;;;;;;4.33;1.20;;;;;;;7.82;95.54;98240.84;5073179;28;20238;-76
2023/01/12 07:52:47;;;;;;;4.13;1.17;;;;;;;7.89;94.24;98227.25;5073727;28;20227;-75
2023/01/12 07:55:16;;;;;;;10.10;1.50;;;;;;;7.94;94.15;98234.88;5073747;28;20578;-76
2023/01/12 07:57:42;;;;;;;4.82;1.40;;;;;;;7.97;93.96;98234.72;5072927;28;20794;-78
2023/01/12 08:00:12;;;;;;;5.63;1.47;;;;;;;7.96;93.71;98233.03;5069872;28;20299;-78
2023/01/12 08:02:38;;;;;;;4.63;1.53;;;;;;;8.00;93.16;98224.00;5072838;28;20250;-78
2023/01/12 08:05:05;;;;;;;4.60;1.30;;;;;;;8.05;91.69;98207.03;5072374;28;20225;-86
2023/01/12 08:07:33;;;;;;;6.20;1.87;;;;;;;8.12;91.83;98207.50;5073672;28;20200;-79
2023/01/12 08:09:59;;;;;;;5.00;1.40;;;;;;;8.09;91.86;98213.78;5072886;28;20208;-78
2023/01/12 08:12:29;;;;;;;5.13;1.40;;;;;;;8.16;91.45;98214.31;5073343;28;20231;-74
2023/01/12 08:14:55;;;;;;;4.83;1.50;;;;;;;8.13;91.46;98225.84;5073499;28;20232;-75
2023/01/12 08:17:23;;;;;;;3.87;1.27;;;;;;;8.18;90.86;98215.91;5073430;28;20213;-75
2023/01/12 08:19:55;;;;;;;2.60;1.20;;;;;;;8.17;90.99;98219.47;5072571;28;20211;-74
2023/01/12 08:22:25;;;;;;;3.60;1.27;;;;;;;8.22;91.15;98213.97;5073075;28;20239;-75
2023/01/12 08:24:58;;;;;;;3.17;1.73;;;;;;;8.18;91.48;98228.22;5073349;28;20227;-74
2023/01/12 08:27:27;;;;;;;5.33;1.30;;;;;;;8.22;91.08;98209.56;5073252;28;20765;-74
2023/01/12 08:29:57;;;;;;;6.67;1.60;;;;;;;8.22;91.78;98221.88;5072953;28;20665;-75
2023/01/12 08:32:24;;;;;;;4.30;1.30;;;;;;;8.23;91.03;98220.94;5077014;28;20262;-75
2023/01/12 08:34:54;;;;;;;3.97;1.27;;;;;;;8.22;91.00;98224.50;5081802;28;20215;-73
2023/01/12 08:37:24;;;;;;;5.80;1.33;;;;;;;8.17;91.07;98221.25;5080098;28;20204;-76
2023/01/12 08:39:52;;;;;;;5.30;1.20;;;;;;;8.25;90.86;98219.03;5072008;28;20218;-76
2023/01/12 08:42:19;;;;;;;4.80;1.70;;;;;;;8.17;90.12;98216.00;5072940;28;20226;-76
2023/01/12 08:44:46;;;;;;;2.80;1.10;;;;;;;8.19;90.08;98215.00;5072785;28;20666;-76
2023/01/12 08:47:17;;;;;;;4.33;1.17;;;;;;;8.20;90.27;98221.13;5072828;28;20261;-76
2023/01/12 08:49:45;;;;;;;3.97;1.63;;;;;;;8.15;91.05;98229.22;5071945;28;20269;-75
2023/01/12 08:52:11;;;;;;;6.27;1.27;;;;;;;8.17;89.89;98222.13;5072283;28;20228;-75
2023/01/12 08:54:38;;;;;;;2.43;1.00;;;;;;;8.26;90.24;98232.13;5072743;28;20215;-76
2023/01/12 08:57:06;;;;;;;5.33;1.53;;;;;;;8.26;90.29;98232.13;5072320;28;20704;-73
2023/01/12 08:59:32;;;;;;;3.07;1.47;;;;;;;8.31;89.67;98268.72;5070606;28;20209;-75
2023/01/12 09:01:59;;;;;;;4.13;1.23;;;;;;;8.25;90.07;98276.97;5072201;28;20338;-76
2023/01/12 09:04:25;;;;;;;6.67;1.33;;;;;;;8.20;90.71;98281.69;5072370;28;20561;-76
2023/01/12 09:06:52;;;;;;;4.43;1.23;;;;;;;8.34;90.81;98281.72;5072090;28;20227;-76
2023/01/12 09:09:20;;;;;;;6.30;1.33;;;;;;;8.42;90.40;98268.94;5071532;28;20213;-76
2023/01/12 09:11:49;;;;;;;3.07;1.23;;;;;;;8.44;89.51;98264.47;5072190;28;20260;-77
2023/01/12 09:14:17;;;;;;;4.50;1.20;;;;;;;8.53;89.50;98271.81;5072301;28;20254;-75
2023/01/12 09:16:44;;;;;;;4.60;1.10;;;;;;;8.46;90.75;98275.75;5072115;28;20580;-77
2023/01/12 09:19:11;;;;;;;7.83;1.77;;;;;;;8.43;90.47;98281.19;5071369;28;20641;-77
2023/01/12 09:21:39;;;;;;;4.23;1.30;;;;;;;8.44;90.87;98282.91;5072243;28;20255;-77
2023/01/12 09:24:06;;;;;;;5.23;1.43;;;;;;;8.47;90.42;98287.97;5071858;28;20204;-77
2023/01/12 09:26:37;;;;;;;3.77;1.10;;;;;;;8.44;90.50;98296.91;5071687;28;20232;-77
2023/01/12 09:29:04;;;;;;;7.50;1.77;;;;;;;8.45;90.77;98298.59;5071106;28;20554;-77
2023/01/12 09:31:33;;;;;;;4.47;1.40;;;;;;;8.55;90.93;98299.75;5071713;28;20223;-77
2023/01/12 09:34:00;;;;;;;4.07;1.30;;;;;;;8.56;90.89;98308.53;5071703;28;20217;-76
2023/01/12 09:36:28;;;;;;;4.90;1.40;;;;;;;8.56;91.30;98305.88;5071962;28;20207;-77
2023/01/12 09:38:56;;;;;;;6.07;1.20;;;;;;;8.64;90.91;98311.53;5071195;28;20591;-75
2023/01/12 09:47:02;;;;;;;5.40;1.23;;;;;;;8.65;91.99;98305.34;5071526;28;20241;-76
2023/01/12 09:49:33;;;;;;;3.67;1.27;;;;;;;8.69;92.09;98310.31;5070912;28;20205;-77
2023/01/12 09:52:06;;;;;;;4.87;1.20;;;;;;;8.72;92.26;98309.31;5071546;28;20228;-76
2023/01/12 09:54:34;;;;;;;4.53;1.23;;;;;;;8.79;91.56;98297.44;5071384;28;20597;-77
2023/01/12 09:57:10;;;;;;;6.67;1.33;;;;;;;8.82;91.24;98286.75;5071282;28;20671;-77
2023/01/12 09:59:45;;;;;;;4.93;1.23;;;;;;;8.87;91.80;98277.59;5070885;28;20226;-77
2023/01/12 10:02:13;;;;;;;5.47;1.20;;;;;;;8.94;91.31;98272.84;5071338;28;20254;-76
2023/01/12 10:04:40;;;;;;;4.60;1.13;;;;;;;9.01;90.91;98263.59;5071288;28;20692;-77
2023/01/12 10:07:12;;;;;;;6.50;1.50;;;;;;;9.07;90.27;98252.69;5071101;28;20231;-76
2023/01/12 10:09:39;;;;;;;5.77;1.00;;;;;;;9.11;90.30;98246.28;5070227;28;20218;-77
2023/01/12 10:12:15;;;;;;;3.73;1.20;;;;;;;9.14;89.52;98243.47;5071048;28;20711;-77
2023/01/12 10:15:02;;;;;;;3.00;1.20;;;;;;;9.22;88.58;98230.63;5071487;28;20239;-77
2023/01/12 10:17:38;;;;;;;8.53;1.90;;;;;;;9.26;89.63;98229.50;5071144;28;20659;-79
2023/01/12 10:20:17;;;;;;;2.47;0.80;;;;;;;9.30;89.57;98234.50;5070516;28;20213;-76
2023/01/12 10:22:45;;;;;;;2.20;1.00;;;;;;;9.39;88.66;98238.34;5085425;22;20348;-80
2023/01/12 10:25:21;;;;;;;4.33;1.07;;;;;;;9.39;87.59;98228.66;5071179;28;20211;-81
2023/01/12 10:27:49;;;;;;;3.93;1.33;;;;;;;9.46;86.89;98219.41;5071218;28;20219;-81
2023/01/12 10:30:18;;;;;;;3.50;1.10;;;;;;;9.48;87.67;98222.78;5070270;28;20589;-81
2023/01/12 10:32:46;;;;;;;3.63;0.97;;;;;;;9.50;87.64;98233.25;5071157;28;20248;-82
2023/01/12 10:35:15;;;;;;;1.87;0.90;;;;;;;9.51;87.21;98227.03;5071294;28;20226;-81
2023/01/12 10:37:47;;;;;;;2.73;1.20;;;;;;;9.55;87.02;98223.25;5071230;28;20590;-81
2023/01/12 10:40:23;;;;;;;8.90;1.37;;;;;;;9.60;86.09;98229.09;5070426;28;20421;-81
2023/01/12 10:45:36;;;;;;;1.73;1.33;;;;;;;9.64;85.90;98227.94;5070921;28;20283;-82
2023/01/12 10:48:16;;;;;;;3.40;1.10;;;;;;;9.61;86.16;98234.25;5070794;28;20695;-81
2023/01/12 10:50:54;;;;;;;2.63;1.00;;;;;;;9.52;85.32;98223.44;5069985;28;20205;-81
2023/01/12 10:53:25;;;;;;;1.87;0.87;;;;;;;9.50;85.52;98220.06;5070668;28;20233;-82
2023/01/12 10:55:51;;;;;;;2.30;1.00;;;;;;;9.54;85.50;98217.13;5070997;28;20551;-82
2023/01/12 10:58:22;;;;;;;4.43;1.30;;;;;;;9.54;84.88;98211.03;5071127;28;20209;-81
2023/01/12 11:00:50;;;;;;;3.80;0.90;;;;;;;9.59;85.71;98208.91;5070012;28;20216;-80
2023/01/12 11:03:32;;;;;;;2.73;0.90;;;;;;;9.57;84.86;98205.53;5070852;28;20223;-80
2023/01/12 11:06:15;;;;;;;6.80;1.00;;;;;;;9.65;84.58;98188.25;5070910;28;20653;-81
2023/01/12 11:08:41;;;;;;;3.27;1.47;;;;;;;9.61;84.42;98183.28;5070668;28;20212;-81
2023/01/12 11:11:16;;;;;;;4.53;1.37;;;;;;;9.60;85.07;98190.34;5070119;28;20209;-81
2023/01/12 11:13:44;;;;;;;6.87;1.47;;;;;;;9.63;85.16;98182.25;5070515;28;20226;-81
2023/01/12 11:16:19;;;;;;;2.40;0.90;;;;;;;9.65;83.59;98175.06;5070807;28;20206;-81
2023/01/12 11:18:56;;;;;;;3.50;0.87;;;;;;;9.61;83.36;98180.66;5070590;28;20216;-81
2023/01/12 11:21:27;;;;;;;4.40;1.23;;;;;;;9.60;83.43;98173.69;5070897;28;20209;-81
2023/01/12 11:23:58;;;;;;;2.40;1.20;;;;;;;9.58;84.17;98176.41;5074246;28;20238;-81
2023/01/12 11:26:28;;;;;;;3.67;1.00;;;;;;;9.55;84.28;98159.94;5074118;28;20243;-81
2023/01/12 11:29:00;;;;;;;4.83;0.80;;;;;;;9.52;83.63;98165.41;5073689;28;20211;-81
2023/01/12 11:31:31;;;;;;;1.97;0.70;;;;;;;9.49;84.17;98177.00;5074113;28;20688;-81
2023/01/12 11:34:04;;;;;;;1.97;0.90;;;;;;;9.59;83.81;98177.25;5074012;28;20224;-81
2023/01/12 11:36:36;;;;;;;1.40;0.73;;;;;;;9.71;83.67;98164.13;5074103;28;20212;-81
2023/01/12 11:39:06;;;;;;;2.77;0.87;;;;;;;9.73;83.46;98164.84;5073284;28;20618;-81
2023/01/12 11:41:37;;;;;;;2.50;1.00;;;;;;;9.83;84.97;98159.81;5074152;28;20205;-81
2023/01/12 11:44:14;;;;;;;2.83;0.90;;;;;;;9.97;83.46;98154.50;5074073;28;20217;-81
2023/01/12 11:46:45;;;;;;;4.37;1.10;;;;;;;10.04;82.42;98148.72;5073988;28;20328;-81
2023/01/12 11:49:18;;;;;;;2.40;1.20;;;;;;;10.06;81.97;98130.13;5073075;28;20212;-81
2023/01/12 11:51:49;;;;;;;1.30;0.77;;;;;;;10.08;81.75;98130.88;5073668;28;20586;-81
2023/01/12 11:54:18;;;;;;;2.00;0.70;;;;;;;10.03;80.27;98125.03;5074011;28;20275;-81
2023/01/12 11:57:17;;;;;;;2.60;0.70;;;;;;;9.99;81.94;98124.41;5073709;28;20210;-81
2023/01/12 11:59:57;;;;;;;2.30;0.70;;;;;;;10.05;80.98;98120.53;5072894;28;20206;-81
2023/01/12 12:02:33;;;;;;;0.67;0.50;;;;;;;10.13;81.69;98134.03;5073781;28;20233;-81
2023/01/12 12:05:11;;;;;;;1.73;0.60;;;;;;;10.26;79.77;98124.34;5073887;28;20308;-81
2023/01/12 12:07:54;;;;;;;2.47;0.57;;;;;;;10.38;80.89;98123.50;5073458;28;20253;-81
2023/01/12 12:10:24;;;;;;;2.10;0.57;;;;;;;10.41;79.40;98110.09;5072599;28;20216;-81
2023/01/12 12:13:13;;;;;;;1.47;0.57;;;;;;;10.29;79.32;98117.06;5073676;28;20284;-81
2023/01/12 12:15:48;;;;;;;1.37;0.50;;;;;;;10.35;80.87;98126.38;5073506;28;20654;-82
2023/01/12 12:18:25;;;;;;;1.87;0.63;;;;;;;10.49;79.66;98120.97;5073145;28;20689;-81